createdAt,value
2022-09-14T00:01:24.694Z,5.05
2022-09-14T00:03:54.757Z,5.10
2022-09-14T00:06:26.120Z,4.78
2022-09-14T00:09:04.607Z,4.63
2022-09-14T00:11:39.647Z,4.68
2022-09-14T00:14:08.263Z,4.03
2022-09-14T00:16:42.963Z,4.53
2022-09-14T00:21:59.084Z,4.38
2022-09-14T00:24:32.056Z,4.80
2022-09-14T00:27:03.195Z,5.15
2022-09-14T00:29:35.713Z,5.13
2022-09-14T00:32:07.832Z,5.07
2022-09-14T00:34:38.816Z,4.60
2022-09-14T00:37:12.559Z,5.55
2022-09-14T00:39:45.139Z,5.63
2022-09-14T00:42:20.218Z,5.50
2022-09-14T00:45:08.441Z,4.50
2022-09-14T00:47:43.467Z,4.28
2022-09-14T00:50:16.946Z,4.28
2022-09-14T00:52:57.193Z,4.32
2022-09-14T00:55:27.273Z,6.28
2022-09-14T00:57:56.771Z,5.15
2022-09-14T01:00:27.399Z,5.72
2022-09-14T01:02:56.027Z,5.63
2022-09-14T01:05:49.371Z,4.95
2022-09-14T01:08:37.707Z,5.18
2022-09-14T01:11:25.071Z,4.80
2022-09-14T01:13:58.716Z,4.55
2022-09-14T01:16:39.213Z,4.40
2022-09-14T01:19:15.113Z,5.88
2022-09-14T01:21:46.858Z,4.18
2022-09-14T01:24:27.840Z,5.22
2022-09-14T01:27:34.355Z,5.18
2022-09-14T01:30:13.792Z,5.10
2022-09-14T01:32:49.289Z,4.90
2022-09-14T01:35:25.250Z,4.82
2022-09-14T01:37:58.220Z,5.30
2022-09-14T01:40:32.859Z,5.15
2022-09-14T01:45:38.657Z,3.78
2022-09-14T01:48:12.075Z,4.13
2022-09-14T01:50:44.283Z,4.88
2022-09-14T01:53:16.122Z,4.82
2022-09-14T01:55:56.769Z,5.28
2022-09-14T01:58:31.539Z,4.55
2022-09-14T02:01:04.134Z,4.90
2022-09-14T02:03:41.641Z,4.82
2022-09-14T02:06:19.891Z,4.85
2022-09-14T02:08:52.873Z,4.80
2022-09-14T02:11:26.613Z,5.30
2022-09-14T02:13:58.353Z,5.00
2022-09-14T02:16:27.086Z,5.53
2022-09-14T02:18:59.217Z,5.50
2022-09-14T02:21:33.351Z,5.53
2022-09-14T02:24:13.812Z,5.43
2022-09-14T02:26:44.306Z,5.60
2022-09-14T02:29:16.722Z,5.95
2022-09-14T02:32:01.683Z,6.03
2022-09-14T02:37:12.211Z,6.03
2022-09-14T02:39:50.235Z,5.78
2022-09-14T02:42:26.284Z,6.13
2022-09-14T02:45:11.707Z,6.38
2022-09-14T02:47:55.656Z,5.55
2022-09-14T02:50:29.885Z,6.43
2022-09-14T02:53:06.421Z,5.93
2022-09-14T02:55:40.652Z,5.60
2022-09-14T02:58:12.872Z,5.70
2022-09-14T03:00:53.077Z,6.20
2022-09-14T03:03:23.324Z,5.47
2022-09-14T03:05:51.668Z,5.97
2022-09-14T03:08:25.742Z,5.22
2022-09-14T03:10:54.336Z,5.93
2022-09-14T03:13:25.410Z,6.43
2022-09-14T03:15:58.955Z,6.30
2022-09-14T03:18:27.368Z,7.25
2022-09-14T03:21:04.327Z,6.97
2022-09-14T03:23:32.791Z,6.68
2022-09-14T03:26:15.917Z,6.55
2022-09-14T03:28:44.501Z,6.28
2022-09-14T03:31:19.851Z,7.00
2022-09-14T03:33:50.997Z,7.10
2022-09-14T03:36:20.974Z,7.53
2022-09-14T03:38:55.581Z,8.52
2022-09-14T03:41:25.962Z,7.40
2022-09-14T03:43:56.376Z,8.02
2022-09-14T03:46:26.698Z,8.85
2022-09-14T03:48:55.995Z,7.80
2022-09-14T03:51:25.071Z,7.85
2022-09-14T03:53:53.806Z,8.32
2022-09-14T03:56:33.537Z,7.53
2022-09-14T03:59:09.817Z,9.15
2022-09-14T04:01:42.596Z,8.77
2022-09-14T04:04:13.548Z,9.02
2022-09-14T04:06:48.483Z,8.70
2022-09-14T04:09:19.101Z,9.02
2022-09-14T04:11:52.098Z,9.02
2022-09-14T04:14:20.526Z,9.13
2022-09-14T04:16:50.330Z,10.18
2022-09-14T04:19:23.400Z,9.20
2022-09-14T04:21:52.000Z,9.25
2022-09-14T04:24:27.726Z,8.35
2022-09-14T04:27:03.493Z,8.27
2022-09-14T04:29:31.871Z,8.02
2022-09-14T04:32:01.782Z,8.45
2022-09-14T04:34:30.167Z,8.60
2022-09-14T04:37:04.537Z,8.82
2022-09-14T04:39:33.917Z,9.00
2022-09-14T04:42:06.537Z,9.27
2022-09-14T04:44:37.544Z,8.35
2022-09-14T04:47:07.840Z,7.18
2022-09-14T04:49:37.256Z,8.73
2022-09-14T04:52:09.727Z,9.50
2022-09-14T04:54:38.116Z,8.65
2022-09-14T04:57:06.860Z,8.30
2022-09-14T04:59:36.899Z,8.57
2022-09-14T05:02:09.741Z,8.88
2022-09-14T05:04:42.722Z,9.65
2022-09-14T05:07:13.274Z,8.70
2022-09-14T05:09:42.126Z,9.07
2022-09-14T05:12:13.760Z,8.60
2022-09-14T05:14:44.768Z,9.17
2022-09-14T05:17:14.538Z,8.93
2022-09-14T05:19:47.199Z,8.98
2022-09-14T05:22:18.160Z,7.70
2022-09-14T05:24:48.327Z,8.00
2022-09-14T05:27:18.781Z,7.60
2022-09-14T05:29:49.207Z,7.28
2022-09-14T05:32:21.153Z,6.68
2022-09-14T05:34:53.529Z,8.02
2022-09-14T05:37:21.996Z,8.55
2022-09-14T05:39:51.993Z,7.90
2022-09-14T05:42:20.756Z,8.38
2022-09-14T05:44:50.407Z,8.38
2022-09-14T05:47:25.289Z,7.57
2022-09-14T05:49:53.692Z,7.85
2022-09-14T05:52:22.013Z,7.72
2022-09-14T05:54:59.303Z,7.70
2022-09-14T05:57:29.886Z,7.90
2022-09-14T06:00:00.409Z,8.50
2022-09-14T06:02:33.150Z,8.95
2022-09-14T06:05:06.172Z,8.73
2022-09-14T06:07:36.843Z,9.52
2022-09-14T06:10:08.769Z,9.90
2022-09-14T06:12:37.114Z,9.48
2022-09-14T06:15:16.958Z,9.63
2022-09-14T06:17:48.939Z,9.65
2022-09-14T06:20:21.853Z,10.65
2022-09-14T06:22:54.012Z,10.07
2022-09-14T06:25:22.424Z,10.35
2022-09-14T06:27:50.806Z,10.07
2022-09-14T06:30:19.270Z,10.23
2022-09-14T06:32:49.058Z,8.60
2022-09-14T06:35:19.979Z,9.30
2022-09-14T06:37:50.907Z,9.43
2022-09-14T06:40:19.485Z,8.10
2022-09-14T06:42:47.924Z,8.27
2022-09-14T06:45:18.596Z,8.60
2022-09-14T06:47:51.688Z,8.05
2022-09-14T06:50:20.103Z,9.07
2022-09-14T06:52:49.967Z,8.85
2022-09-14T06:55:18.714Z,8.20
2022-09-14T06:57:49.493Z,8.52
2022-09-14T07:00:20.164Z,8.05
2022-09-14T07:02:55.578Z,8.32
2022-09-14T07:05:29.195Z,7.78
2022-09-14T07:07:57.982Z,7.90
2022-09-14T07:10:30.237Z,7.20
2022-09-14T07:13:02.839Z,7.15
2022-09-14T07:15:32.039Z,7.53
2022-09-14T07:18:00.470Z,7.05
2022-09-14T07:20:31.097Z,6.47
2022-09-14T07:23:01.864Z,6.20
2022-09-14T07:25:32.400Z,6.30
2022-09-14T07:28:03.927Z,5.75
2022-09-14T07:30:33.511Z,6.22
2022-09-14T07:33:21.509Z,6.60
2022-09-14T07:38:48.202Z,6.22
2022-09-14T07:41:15.443Z,6.57
2022-09-14T07:43:47.282Z,6.78
2022-09-14T07:46:18.192Z,6.50
2022-09-14T07:48:50.684Z,7.32
2022-09-14T07:51:23.548Z,7.60
2022-09-14T07:53:54.699Z,6.95
2022-09-14T07:56:25.504Z,7.55
2022-09-14T07:59:11.880Z,7.28
2022-09-14T08:01:49.728Z,8.50
2022-09-14T08:04:18.351Z,8.13
2022-09-14T08:06:55.127Z,7.97
2022-09-14T08:09:29.482Z,8.70
2022-09-14T08:11:58.134Z,7.70
2022-09-14T08:14:30.855Z,7.90
2022-09-14T08:17:01.819Z,7.70
2022-09-14T08:19:34.334Z,8.23
2022-09-14T08:22:06.536Z,8.63
2022-09-14T08:24:37.595Z,8.70
2022-09-14T08:29:37.852Z,9.50
2022-09-14T08:32:08.849Z,8.77
2022-09-14T08:34:42.555Z,8.98
2022-09-14T08:37:14.143Z,9.23
2022-09-14T08:39:51.532Z,8.18
2022-09-14T08:42:27.861Z,7.40
2022-09-14T08:45:00.501Z,7.43
2022-09-14T08:47:41.938Z,8.13
2022-09-14T08:53:20.325Z,7.88
2022-09-14T08:55:55.188Z,7.55
2022-09-14T08:58:52.917Z,6.97
2022-09-14T09:01:29.554Z,7.60
2022-09-14T09:04:18.810Z,7.72
2022-09-14T09:06:57.210Z,7.60
2022-09-14T09:09:50.632Z,6.75
2022-09-14T09:12:26.045Z,7.68
2022-09-14T09:14:56.633Z,7.40
2022-09-14T09:17:34.925Z,7.57
2022-09-14T09:20:13.929Z,8.13
2022-09-14T09:22:50.833Z,7.32
2022-09-14T09:25:23.696Z,6.82
2022-09-14T09:27:54.399Z,7.00
2022-09-14T09:30:26.150Z,6.63
2022-09-14T09:33:12.850Z,6.63
2022-09-14T09:35:55.318Z,6.53
2022-09-14T09:38:31.929Z,6.25
2022-09-14T09:41:17.710Z,6.18
2022-09-14T09:44:04.673Z,5.65
2022-09-14T09:46:36.014Z,6.22
2022-09-14T09:49:19.312Z,5.97
2022-09-14T09:51:49.111Z,5.90
2022-09-14T09:54:32.955Z,6.28
2022-09-14T09:57:05.726Z,6.53
2022-09-14T09:59:36.722Z,6.25
2022-09-14T10:02:27.645Z,7.20
2022-09-14T10:05:08.591Z,7.55
2022-09-14T10:07:44.386Z,6.95
2022-09-14T10:10:16.691Z,7.45
2022-09-14T10:12:55.443Z,6.78
2022-09-14T10:15:27.064Z,8.00
2022-09-14T10:18:13.327Z,6.68
2022-09-14T10:20:45.260Z,6.40
2022-09-14T10:23:30.615Z,6.45
2022-09-14T10:26:35.430Z,6.63
2022-09-14T10:29:37.176Z,5.53
2022-09-14T10:32:18.900Z,6.28
2022-09-14T10:34:49.347Z,5.57
2022-09-14T10:37:29.917Z,5.40
2022-09-14T10:40:18.012Z,5.75
2022-09-14T10:43:01.430Z,5.18
2022-09-14T10:45:37.198Z,5.18
2022-09-14T10:48:24.795Z,5.25
2022-09-14T10:51:14.201Z,4.78
2022-09-14T10:53:51.284Z,4.55
2022-09-14T10:56:28.561Z,4.80
2022-09-14T10:59:38.525Z,4.30
2022-09-14T11:02:56.683Z,4.25
2022-09-14T11:05:39.050Z,5.03
2022-09-14T11:08:32.576Z,5.32
2022-09-14T11:11:24.168Z,5.20
2022-09-14T11:14:05.318Z,5.25
2022-09-14T11:17:01.970Z,5.43
2022-09-14T11:19:44.931Z,5.47
2022-09-14T11:22:34.353Z,4.78
2022-09-14T11:25:13.886Z,5.68
2022-09-14T11:27:56.482Z,5.50
2022-09-14T11:30:30.875Z,4.85
2022-09-14T11:33:03.309Z,5.50
2022-09-14T11:35:38.463Z,5.45
2022-09-14T11:38:16.168Z,5.38
2022-09-14T11:41:02.085Z,5.28
2022-09-14T11:43:45.086Z,5.35
2022-09-14T11:46:25.206Z,5.57
2022-09-14T11:49:04.670Z,5.32
2022-09-14T11:51:58.440Z,6.07
2022-09-14T11:54:31.833Z,5.22
2022-09-14T11:57:19.455Z,5.78
2022-09-14T12:00:02.602Z,5.53
2022-09-14T12:03:13.638Z,4.82
2022-09-14T12:06:06.140Z,5.45
2022-09-14T12:08:42.774Z,5.18
2022-09-14T12:11:33.779Z,5.50
2022-09-14T12:17:49.245Z,5.60
2022-09-14T12:20:54.755Z,5.32
2022-09-14T12:23:36.593Z,6.20
2022-09-14T12:26:39.048Z,5.32
2022-09-14T12:29:28.117Z,5.65
2022-09-14T12:32:34.296Z,6.28
2022-09-14T12:35:40.580Z,6.25
2022-09-14T12:38:47.622Z,5.47
2022-09-14T12:41:52.837Z,6.25
2022-09-14T12:44:38.736Z,5.80
2022-09-14T12:48:01.492Z,6.18
2022-09-14T12:50:41.332Z,5.40
2022-09-14T12:53:39.491Z,6.05
2022-09-14T12:56:18.341Z,5.45
2022-09-14T12:59:13.579Z,6.22
2022-09-14T13:05:32.333Z,6.30
2022-09-14T13:08:32.847Z,6.10
2022-09-14T13:11:09.380Z,6.57
2022-09-14T13:13:41.770Z,5.43
2022-09-14T13:16:16.634Z,5.55
2022-09-14T13:18:48.405Z,6.07
2022-09-14T13:21:24.223Z,5.88
2022-09-14T13:24:00.470Z,6.07
2022-09-14T13:26:33.523Z,5.75
2022-09-14T13:29:09.506Z,5.32
2022-09-14T13:31:42.627Z,5.85
2022-09-14T13:34:45.614Z,5.60
2022-09-14T13:37:18.082Z,5.28
2022-09-14T13:39:52.260Z,5.68
2022-09-14T13:42:39.454Z,5.30
2022-09-14T13:45:35.696Z,4.68
2022-09-14T13:48:35.819Z,4.78
2022-09-14T13:51:19.667Z,4.82
2022-09-14T13:53:50.245Z,4.38
2022-09-14T13:56:28.354Z,4.50
2022-09-14T13:59:24.683Z,4.32
2022-09-14T14:02:32.203Z,4.68
2022-09-14T14:07:51.162Z,4.80
2022-09-14T14:10:31.564Z,4.07
2022-09-14T14:13:03.801Z,5.28
2022-09-14T14:15:57.628Z,7.20
2022-09-14T14:18:42.938Z,4.97
2022-09-14T14:21:42.629Z,4.93
2022-09-14T14:25:09.226Z,4.72
2022-09-14T14:27:56.891Z,5.55
2022-09-14T14:30:29.724Z,5.47
2022-09-14T14:33:15.598Z,5.00
2022-09-14T14:35:50.505Z,4.68
2022-09-14T14:38:35.416Z,4.80
2022-09-14T14:46:41.358Z,5.05
2022-09-14T14:49:13.661Z,5.38
2022-09-14T14:52:35.279Z,6.13
2022-09-14T14:58:50.924Z,5.60
2022-09-14T15:01:34.827Z,5.72
2022-09-14T15:04:23.762Z,5.80
2022-09-14T15:06:53.265Z,5.90
2022-09-14T15:09:26.735Z,6.30
2022-09-14T15:12:07.236Z,6.20
2022-09-14T15:17:32.212Z,6.55
2022-09-14T15:20:36.595Z,6.32
2022-09-14T15:23:09.066Z,6.47
2022-09-14T15:25:53.001Z,6.35
2022-09-14T15:28:30.498Z,6.32
2022-09-14T15:31:08.493Z,6.00
2022-09-14T15:33:55.945Z,6.63
2022-09-14T15:36:43.907Z,6.28
2022-09-14T15:39:37.259Z,6.32
2022-09-14T15:42:11.082Z,6.50
2022-09-14T15:44:42.226Z,6.95
2022-09-14T15:47:17.634Z,6.63
2022-09-14T15:49:48.220Z,6.85
2022-09-14T15:52:24.073Z,6.63
2022-09-14T15:54:52.682Z,6.90
2022-09-14T15:57:22.965Z,6.97
2022-09-14T15:59:52.767Z,6.75
2022-09-14T16:02:33.012Z,6.82
2022-09-14T16:05:05.314Z,6.68
2022-09-14T16:07:38.927Z,6.60
2022-09-14T16:10:11.464Z,6.90
2022-09-14T16:12:44.425Z,6.57
2022-09-14T16:15:13.280Z,6.53
2022-09-14T16:18:25.622Z,6.55
2022-09-14T16:21:12.633Z,6.55
2022-09-14T16:26:59.892Z,7.03
2022-09-14T16:29:29.673Z,7.07
2022-09-14T16:32:01.509Z,7.30
2022-09-14T16:34:36.067Z,7.25
2022-09-14T16:39:50.825Z,6.90
2022-09-14T16:42:20.296Z,7.72
2022-09-14T16:44:56.344Z,7.78
2022-09-14T16:50:37.431Z,8.48
2022-09-14T16:53:10.605Z,8.60
2022-09-14T16:55:40.268Z,8.30
2022-09-14T16:58:32.515Z,9.40
2022-09-14T17:01:10.909Z,8.82
2022-09-14T17:03:47.709Z,8.15
2022-09-14T17:06:24.040Z,9.30
2022-09-14T17:09:04.998Z,9.73
2022-09-14T17:11:48.050Z,9.10
2022-09-14T17:14:42.512Z,10.20
2022-09-14T17:17:20.821Z,9.40
2022-09-14T17:19:53.915Z,9.57
2022-09-14T17:22:25.433Z,9.50
2022-09-14T17:24:55.725Z,8.38
2022-09-14T17:27:27.597Z,10.52
2022-09-14T17:32:37.592Z,10.93
2022-09-14T17:35:14.494Z,10.85
2022-09-14T17:38:01.388Z,10.40
2022-09-14T17:40:40.020Z,10.10
2022-09-14T17:43:08.581Z,10.32
2022-09-14T17:45:59.347Z,9.80
2022-09-14T17:51:36.114Z,10.15
2022-09-14T17:54:17.032Z,9.65
2022-09-14T17:56:50.105Z,10.35
2022-09-14T17:59:27.951Z,10.38
2022-09-14T18:02:03.333Z,10.07
2022-09-14T18:04:47.877Z,10.35
2022-09-14T18:07:19.690Z,10.73
2022-09-14T18:09:49.342Z,10.35
2022-09-14T18:12:32.269Z,9.88
2022-09-14T18:15:06.629Z,10.85
2022-09-14T18:17:40.729Z,10.90
2022-09-14T18:24:18.296Z,12.23
2022-09-14T18:26:50.638Z,13.32
2022-09-14T18:29:34.748Z,12.70
2022-09-14T18:32:04.388Z,12.93
2022-09-14T18:34:37.934Z,13.90
2022-09-14T18:37:10.210Z,12.10
2022-09-14T18:39:44.937Z,13.98
2022-09-14T18:42:32.079Z,13.50
2022-09-14T18:45:48.453Z,14.30
2022-09-14T18:48:23.089Z,14.00
2022-09-14T18:50:55.047Z,14.02
2022-09-14T18:53:25.854Z,14.25
2022-09-14T18:55:59.782Z,14.25
2022-09-14T18:58:53.937Z,14.90
2022-09-14T19:02:09.057Z,14.60
2022-09-14T19:04:56.014Z,15.30
2022-09-14T19:08:07.629Z,15.18
2022-09-14T19:10:43.164Z,13.70
2022-09-14T19:13:36.700Z,14.77
2022-09-14T19:16:17.664Z,13.93
2022-09-14T19:18:56.437Z,14.20
2022-09-14T19:21:31.372Z,14.65
2022-09-14T19:24:14.965Z,14.85
2022-09-14T19:26:51.188Z,14.77
2022-09-14T19:29:29.781Z,15.45
2022-09-14T19:32:12.397Z,15.35
2022-09-14T19:34:49.134Z,12.95
2022-09-14T19:37:19.797Z,14.23
2022-09-14T19:39:57.704Z,14.93
2022-09-14T19:42:49.594Z,14.52
2022-09-14T19:45:37.499Z,13.63
2022-09-14T19:54:12.272Z,13.93
2022-09-14T19:57:06.746Z,14.45
2022-09-14T19:59:52.732Z,15.23
2022-09-14T20:02:46.391Z,15.15
2022-09-14T20:05:20.493Z,14.93
2022-09-14T20:08:06.419Z,15.05
2022-09-14T20:10:40.859Z,14.48
2022-09-14T20:13:16.000Z,16.40
2022-09-14T20:15:46.759Z,16.08
2022-09-14T20:18:19.025Z,16.52
2022-09-14T20:21:11.683Z,17.02
2022-09-14T20:24:17.391Z,16.77
2022-09-14T20:27:06.747Z,16.90
2022-09-14T20:30:07.728Z,16.70
2022-09-14T20:32:41.828Z,17.23
2022-09-14T20:35:19.429Z,16.75
2022-09-14T20:37:54.028Z,18.27
2022-09-14T20:40:39.458Z,17.67
2022-09-14T20:43:11.448Z,19.13
2022-09-14T20:45:41.775Z,18.33
2022-09-14T20:48:32.971Z,19.45
2022-09-14T20:51:21.571Z,18.38
2022-09-14T20:54:05.523Z,19.25
2022-09-14T20:57:10.649Z,18.38
2022-09-14T21:02:57.290Z,19.48
2022-09-14T21:05:57.899Z,18.30
2022-09-14T21:08:41.858Z,19.15
2022-09-14T21:11:35.008Z,20.23
2022-09-14T21:14:13.721Z,19.95
2022-09-14T21:16:52.616Z,17.73
2022-09-14T21:19:25.541Z,20.05
2022-09-14T21:22:10.446Z,20.17
2022-09-14T21:27:17.632Z,18.80
2022-09-14T21:29:48.739Z,19.38
2022-09-14T21:32:17.584Z,19.27
2022-09-14T21:35:03.255Z,20.23
2022-09-14T21:37:36.431Z,19.90
2022-09-14T21:40:07.188Z,20.02
2022-09-14T21:42:37.501Z,21.08
2022-09-14T21:45:10.824Z,19.95
2022-09-14T21:47:47.542Z,21.58
2022-09-14T21:50:20.338Z,21.70
2022-09-14T21:52:55.760Z,22.63
2022-09-14T21:55:26.882Z,20.58
2022-09-14T22:00:49.830Z,22.60
2022-09-14T22:03:20.554Z,20.75
2022-09-14T22:05:58.788Z,18.55
2022-09-14T22:08:29.213Z,21.20
2022-09-14T22:11:02.004Z,20.05
2022-09-14T22:13:34.882Z,15.23
2022-09-14T22:16:16.570Z,15.32
2022-09-14T22:19:02.307Z,21.35
2022-09-14T22:21:39.921Z,20.25
2022-09-14T22:24:14.819Z,21.63
2022-09-14T22:26:52.061Z,14.52
2022-09-14T22:29:22.811Z,19.70
2022-09-14T22:31:58.710Z,19.38
2022-09-14T22:34:30.418Z,16.10
2022-09-14T22:37:00.608Z,19.88
2022-09-14T22:39:40.220Z,19.25
2022-09-14T22:42:11.293Z,17.38
2022-09-14T22:44:42.714Z,15.95
2022-09-14T22:47:14.322Z,18.55
2022-09-14T22:49:48.806Z,17.00
2022-09-14T22:52:22.673Z,14.35
2022-09-14T22:54:51.515Z,15.50
2022-09-14T22:57:24.288Z,15.68
2022-09-14T23:00:00.448Z,16.30
2022-09-14T23:02:38.468Z,14.95
2022-09-14T23:05:13.002Z,12.35
2022-09-14T23:07:47.396Z,14.10
2022-09-14T23:10:23.926Z,14.05
2022-09-14T23:12:52.550Z,13.93
2022-09-14T23:15:23.935Z,14.48
2022-09-14T23:17:58.207Z,15.38
2022-09-14T23:20:29.441Z,16.35
2022-09-14T23:23:01.036Z,14.20
2022-09-14T23:25:37.752Z,15.13
2022-09-14T23:28:13.939Z,15.02
2022-09-14T23:30:42.489Z,15.43
2022-09-14T23:33:12.479Z,14.05
2022-09-14T23:35:48.263Z,15.43
2022-09-14T23:38:18.861Z,15.18
2022-09-14T23:40:47.381Z,15.25
2022-09-14T23:43:15.879Z,14.93
2022-09-14T23:45:45.408Z,15.50
2022-09-14T23:48:18.157Z,15.65
2022-09-14T23:50:46.613Z,12.93
2022-09-14T23:53:15.013Z,13.90
2022-09-14T23:55:44.049Z,15.07
2022-09-14T23:58:16.974Z,12.35
